sensor_id;sensor_type;location;lat;lon;timestamp;temperature;humidity
12872;DHT22;6504;53.766;9.626;2023-01-10T00:01:50;6.00;99.90
12872;DHT22;6504;53.766;9.626;2023-01-10T00:04:18;6.00;99.90
12872;DHT22;6504;53.766;9.626;2023-01-10T00:06:48;6.00;99.90
12872;DHT22;6504;53.766;9.626;2023-01-10T00:09:16;6.00;99.90
12872;DHT22;6504;53.766;9.626;2023-01-10T00:11:44;6.00;99.90
12872;DHT22;6504;53.766;9.626;2023-01-10T00:14:29;6.00;99.90
12872;DHT22;6504;53.766;9.626;2023-01-10T00:16:59;6.10;99.90
12872;DHT22;6504;53.766;9.626;2023-01-10T00:19:27;6.00;99.90
12872;DHT22;6504;53.766;9.626;2023-01-10T00:21:56;6.00;99.90
12872;DHT22;6504;53.766;9.626;2023-01-10T00:24:31;6.00;99.90
12872;DHT22;6504;53.766;9.626;2023-01-10T00:26:59;6.00;99.90
12872;DHT22;6504;53.766;9.626;2023-01-10T00:29:29;6.00;99.90
12872;DHT22;6504;53.766;9.626;2023-01-10T00:31:57;6.00;99.90
12872;DHT22;6504;53.766;9.626;2023-01-10T00:34:25;6.00;99.90
12872;DHT22;6504;53.766;9.626;2023-01-10T00:36:53;6.00;99.90
12872;DHT22;6504;53.766;9.626;2023-01-10T00:39:23;6.00;99.90
12872;DHT22;6504;53.766;9.626;2023-01-10T00:41:53;6.00;99.90
12872;DHT22;6504;53.766;9.626;2023-01-10T00:44:38;6.00;99.90
12872;DHT22;6504;53.766;9.626;2023-01-10T00:47:06;6.00;99.90
12872;DHT22;6504;53.766;9.626;2023-01-10T00:49:34;5.90;99.90
12872;DHT22;6504;53.766;9.626;2023-01-10T00:52:02;5.90;99.90
12872;DHT22;6504;53.766;9.626;2023-01-10T00:54:32;5.90;99.90
12872;DHT22;6504;53.766;9.626;2023-01-10T00:57:00;5.90;99.90
12872;DHT22;6504;53.766;9.626;2023-01-10T00:59:28;5.90;99.90
12872;DHT22;6504;53.766;9.626;2023-01-10T01:01:57;5.80;99.90
12872;DHT22;6504;53.766;9.626;2023-01-10T01:04:25;5.70;99.90
12872;DHT22;6504;53.766;9.626;2023-01-10T01:06:53;5.70;99.90
12872;DHT22;6504;53.766;9.626;2023-01-10T01:09:21;5.70;99.90
12872;DHT22;6504;53.766;9.626;2023-01-10T01:11:51;5.70;99.90
12872;DHT22;6504;53.766;9.626;2023-01-10T01:14:19;5.70;99.90
12872;DHT22;6504;53.766;9.626;2023-01-10T01:16:47;5.70;99.90
12872;DHT22;6504;53.766;9.626;2023-01-10T01:19:15;5.60;99.90
12872;DHT22;6504;53.766;9.626;2023-01-10T01:21:43;5.60;99.90
12872;DHT22;6504;53.766;9.626;2023-01-10T01:24:11;5.60;99.90
12872;DHT22;6504;53.766;9.626;2023-01-10T01:26:39;5.60;99.90
12872;DHT22;6504;53.766;9.626;2023-01-10T01:29:09;5.60;99.90
12872;DHT22;6504;53.766;9.626;2023-01-10T01:31:37;5.50;99.90
12872;DHT22;6504;53.766;9.626;2023-01-10T01:34:06;5.50;99.90
12872;DHT22;6504;53.766;9.626;2023-01-10T01:36:34;5.50;99.90
12872;DHT22;6504;53.766;9.626;2023-01-10T01:39:02;5.50;99.90
12872;DHT22;6504;53.766;9.626;2023-01-10T01:41:31;5.40;99.90
12872;DHT22;6504;53.766;9.626;2023-01-10T01:44:19;5.50;99.90
12872;DHT22;6504;53.766;9.626;2023-01-10T01:46:51;5.40;99.90
12872;DHT22;6504;53.766;9.626;2023-01-10T01:49:22;5.40;99.90
12872;DHT22;6504;53.766;9.626;2023-01-10T01:51:54;5.40;99.90
12872;DHT22;6504;53.766;9.626;2023-01-10T01:54:25;5.40;99.90
12872;DHT22;6504;53.766;9.626;2023-01-10T01:56:58;5.40;99.90
12872;DHT22;6504;53.766;9.626;2023-01-10T01:59:31;5.40;99.90
12872;DHT22;6504;53.766;9.626;2023-01-10T02:02:03;5.40;99.90
12872;DHT22;6504;53.766;9.626;2023-01-10T02:04:37;5.40;99.90
12872;DHT22;6504;53.766;9.626;2023-01-10T02:07:07;5.40;99.90
12872;DHT22;6504;53.766;9.626;2023-01-10T02:09:41;5.40;99.90
12872;DHT22;6504;53.766;9.626;2023-01-10T02:12:11;5.50;99.90
12872;DHT22;6504;53.766;9.626;2023-01-10T02:14:44;5.40;99.90
12872;DHT22;6504;53.766;9.626;2023-01-10T02:17:13;5.40;99.90
12872;DHT22;6504;53.766;9.626;2023-01-10T02:19:49;5.40;99.90
12872;DHT22;6504;53.766;9.626;2023-01-10T02:22:40;5.40;99.90
12872;DHT22;6504;53.766;9.626;2023-01-10T02:31:36;5.40;99.90
12872;DHT22;6504;53.766;9.626;2023-01-10T02:34:12;5.40;99.90
12872;DHT22;6504;53.766;9.626;2023-01-10T02:36:52;5.40;99.90
12872;DHT22;6504;53.766;9.626;2023-01-10T02:39:30;5.40;99.90
12872;DHT22;6504;53.766;9.626;2023-01-10T02:42:05;5.40;99.90
12872;DHT22;6504;53.766;9.626;2023-01-10T02:44:39;5.40;99.90
12872;DHT22;6504;53.766;9.626;2023-01-10T02:47:09;5.40;99.90
12872;DHT22;6504;53.766;9.626;2023-01-10T02:49:43;5.40;99.90
12872;DHT22;6504;53.766;9.626;2023-01-10T02:52:13;5.40;99.90
12872;DHT22;6504;53.766;9.626;2023-01-10T02:54:44;5.50;99.90
12872;DHT22;6504;53.766;9.626;2023-01-10T02:57:26;5.40;99.90
12872;DHT22;6504;53.766;9.626;2023-01-10T03:00:21;5.40;99.90
12872;DHT22;6504;53.766;9.626;2023-01-10T03:03:03;5.40;99.90
12872;DHT22;6504;53.766;9.626;2023-01-10T03:05:52;5.40;99.90
12872;DHT22;6504;53.766;9.626;2023-01-10T03:08:26;5.40;99.90
12872;DHT22;6504;53.766;9.626;2023-01-10T03:10:58;5.40;99.90
12872;DHT22;6504;53.766;9.626;2023-01-10T03:13:30;5.40;99.90
12872;DHT22;6504;53.766;9.626;2023-01-10T03:16:02;5.40;99.90
12872;DHT22;6504;53.766;9.626;2023-01-10T03:18:32;5.40;99.90
12872;DHT22;6504;53.766;9.626;2023-01-10T03:21:03;5.40;99.90
12872;DHT22;6504;53.766;9.626;2023-01-10T03:23:34;5.30;99.90
12872;DHT22;6504;53.766;9.626;2023-01-10T03:26:03;5.30;99.90
12872;DHT22;6504;53.766;9.626;2023-01-10T03:28:36;5.30;99.90
12872;DHT22;6504;53.766;9.626;2023-01-10T03:31:09;5.30;99.90
12872;DHT22;6504;53.766;9.626;2023-01-10T03:33:38;5.20;99.90
12872;DHT22;6504;53.766;9.626;2023-01-10T03:36:12;5.20;99.90
12872;DHT22;6504;53.766;9.626;2023-01-10T03:38:50;5.20;99.90
12872;DHT22;6504;53.766;9.626;2023-01-10T03:41:28;5.10;99.90
12872;DHT22;6504;53.766;9.626;2023-01-10T03:44:06;5.10;99.90
12872;DHT22;6504;53.766;9.626;2023-01-10T03:46:57;5.20;99.90
12872;DHT22;6504;53.766;9.626;2023-01-10T03:49:27;5.10;99.90
12872;DHT22;6504;53.766;9.626;2023-01-10T03:51:57;5.10;99.90
12872;DHT22;6504;53.766;9.626;2023-01-10T03:54:26;5.10;99.90
12872;DHT22;6504;53.766;9.626;2023-01-10T03:56:54;5.10;99.90
12872;DHT22;6504;53.766;9.626;2023-01-10T03:59:25;5.10;99.90
12872;DHT22;6504;53.766;9.626;2023-01-10T04:01:54;5.10;99.90
12872;DHT22;6504;53.766;9.626;2023-01-10T04:04:22;5.10;99.90
12872;DHT22;6504;53.766;9.626;2023-01-10T04:06:50;5.10;99.90
12872;DHT22;6504;53.766;9.626;2023-01-10T04:09:20;5.10;99.90
12872;DHT22;6504;53.766;9.626;2023-01-10T04:11:48;5.10;99.90
12872;DHT22;6504;53.766;9.626;2023-01-10T04:14:15;5.10;99.90
12872;DHT22;6504;53.766;9.626;2023-01-10T04:16:44;5.10;99.90
12872;DHT22;6504;53.766;9.626;2023-01-10T04:19:12;5.10;99.90
12872;DHT22;6504;53.766;9.626;2023-01-10T04:21:40;5.10;99.90
12872;DHT22;6504;53.766;9.626;2023-01-10T04:24:08;5.10;99.90
12872;DHT22;6504;53.766;9.626;2023-01-10T04:26:37;5.10;99.90
12872;DHT22;6504;53.766;9.626;2023-01-10T04:29:05;5.10;99.90
12872;DHT22;6504;53.766;9.626;2023-01-10T04:31:33;5.10;99.90
12872;DHT22;6504;53.766;9.626;2023-01-10T04:34:01;5.10;99.90
12872;DHT22;6504;53.766;9.626;2023-01-10T04:36:29;5.10;99.90
12872;DHT22;6504;53.766;9.626;2023-01-10T04:38:57;5.10;99.90
12872;DHT22;6504;53.766;9.626;2023-01-10T04:41:25;5.20;99.90
12872;DHT22;6504;53.766;9.626;2023-01-10T04:43:55;5.20;99.90
12872;DHT22;6504;53.766;9.626;2023-01-10T04:46:23;5.20;99.90
12872;DHT22;6504;53.766;9.626;2023-01-10T04:48:51;5.20;99.90
12872;DHT22;6504;53.766;9.626;2023-01-10T04:51:19;5.20;99.90
12872;DHT22;6504;53.766;9.626;2023-01-10T04:53:47;5.20;99.90
12872;DHT22;6504;53.766;9.626;2023-01-10T04:56:16;5.20;99.90
12872;DHT22;6504;53.766;9.626;2023-01-10T04:58:45;5.20;99.90
12872;DHT22;6504;53.766;9.626;2023-01-10T05:01:16;5.20;99.90
12872;DHT22;6504;53.766;9.626;2023-01-10T05:03:47;5.30;99.90
12872;DHT22;6504;53.766;9.626;2023-01-10T05:06:16;5.20;99.90
12872;DHT22;6504;53.766;9.626;2023-01-10T05:08:44;5.30;99.90
12872;DHT22;6504;53.766;9.626;2023-01-10T05:11:12;5.30;99.90
12872;DHT22;6504;53.766;9.626;2023-01-10T05:13:41;5.30;99.90
12872;DHT22;6504;53.766;9.626;2023-01-10T05:16:09;5.30;99.90
12872;DHT22;6504;53.766;9.626;2023-01-10T05:18:38;5.30;99.90
12872;DHT22;6504;53.766;9.626;2023-01-10T05:21:08;5.30;99.90
12872;DHT22;6504;53.766;9.626;2023-01-10T05:23:37;5.30;99.90
12872;DHT22;6504;53.766;9.626;2023-01-10T05:26:07;5.30;99.90
12872;DHT22;6504;53.766;9.626;2023-01-10T05:28:35;5.30;99.90
12872;DHT22;6504;53.766;9.626;2023-01-10T05:31:04;5.20;99.90
12872;DHT22;6504;53.766;9.626;2023-01-10T05:33:33;5.20;99.90
12872;DHT22;6504;53.766;9.626;2023-01-10T05:36:03;5.20;99.90
12872;DHT22;6504;53.766;9.626;2023-01-10T05:38:32;5.20;99.90
12872;DHT22;6504;53.766;9.626;2023-01-10T05:41:00;5.20;99.90
12872;DHT22;6504;53.766;9.626;2023-01-10T05:43:28;5.10;99.90
12872;DHT22;6504;53.766;9.626;2023-01-10T05:45:56;5.10;99.90
12872;DHT22;6504;53.766;9.626;2023-01-10T05:48:24;5.10;99.90
12872;DHT22;6504;53.766;9.626;2023-01-10T05:50:52;5.10;99.90
12872;DHT22;6504;53.766;9.626;2023-01-10T05:53:22;5.00;99.90
12872;DHT22;6504;53.766;9.626;2023-01-10T05:55:54;5.00;99.90
12872;DHT22;6504;53.766;9.626;2023-01-10T05:58:22;5.00;99.90
12872;DHT22;6504;53.766;9.626;2023-01-10T06:00:50;5.10;99.90
12872;DHT22;6504;53.766;9.626;2023-01-10T06:03:19;5.10;99.90
12872;DHT22;6504;53.766;9.626;2023-01-10T06:05:47;5.10;99.90
12872;DHT22;6504;53.766;9.626;2023-01-10T06:08:15;5.10;99.90
12872;DHT22;6504;53.766;9.626;2023-01-10T06:10:44;5.10;99.90
12872;DHT22;6504;53.766;9.626;2023-01-10T06:13:12;5.10;99.90
12872;DHT22;6504;53.766;9.626;2023-01-10T06:15:41;5.10;99.90
12872;DHT22;6504;53.766;9.626;2023-01-10T06:18:09;5.10;99.90
12872;DHT22;6504;53.766;9.626;2023-01-10T06:20:38;5.10;99.90
12872;DHT22;6504;53.766;9.626;2023-01-10T06:23:06;5.10;99.90
12872;DHT22;6504;53.766;9.626;2023-01-10T06:25:35;5.00;99.90
12872;DHT22;6504;53.766;9.626;2023-01-10T06:28:08;5.00;99.90
12872;DHT22;6504;53.766;9.626;2023-01-10T06:30:37;5.00;99.90
12872;DHT22;6504;53.766;9.626;2023-01-10T06:33:07;5.00;99.90
12872;DHT22;6504;53.766;9.626;2023-01-10T06:35:36;4.90;99.90
12872;DHT22;6504;53.766;9.626;2023-01-10T06:38:04;4.90;99.90
12872;DHT22;6504;53.766;9.626;2023-01-10T06:40:32;4.90;99.90
12872;DHT22;6504;53.766;9.626;2023-01-10T06:43:00;4.90;99.90
12872;DHT22;6504;53.766;9.626;2023-01-10T06:45:30;4.90;99.90
12872;DHT22;6504;53.766;9.626;2023-01-10T06:47:58;4.90;99.90
12872;DHT22;6504;53.766;9.626;2023-01-10T06:50:26;4.90;99.90
12872;DHT22;6504;53.766;9.626;2023-01-10T06:52:55;5.00;99.90
12872;DHT22;6504;53.766;9.626;2023-01-10T06:55:23;5.00;99.90
12872;DHT22;6504;53.766;9.626;2023-01-10T06:57:55;5.00;99.90
12872;DHT22;6504;53.766;9.626;2023-01-10T07:00:24;5.00;99.90
12872;DHT22;6504;53.766;9.626;2023-01-10T07:02:57;5.00;99.90
12872;DHT22;6504;53.766;9.626;2023-01-10T07:05:25;5.00;99.90
12872;DHT22;6504;53.766;9.626;2023-01-10T07:07:53;5.00;99.90
12872;DHT22;6504;53.766;9.626;2023-01-10T07:10:21;5.00;99.90
12872;DHT22;6504;53.766;9.626;2023-01-10T07:12:49;4.90;99.90
12872;DHT22;6504;53.766;9.626;2023-01-10T07:15:17;4.90;99.90
12872;DHT22;6504;53.766;9.626;2023-01-10T07:17:45;4.90;99.90
12872;DHT22;6504;53.766;9.626;2023-01-10T07:20:15;4.90;99.90
12872;DHT22;6504;53.766;9.626;2023-01-10T07:22:43;4.90;99.90
12872;DHT22;6504;53.766;9.626;2023-01-10T07:25:11;4.80;99.90
12872;DHT22;6504;53.766;9.626;2023-01-10T07:27:39;4.80;99.90
12872;DHT22;6504;53.766;9.626;2023-01-10T07:30:10;4.90;99.90
12872;DHT22;6504;53.766;9.626;2023-01-10T07:32:38;4.90;99.90
12872;DHT22;6504;53.766;9.626;2023-01-10T07:35:06;4.90;99.90
12872;DHT22;6504;53.766;9.626;2023-01-10T07:37:36;4.90;99.90
12872;DHT22;6504;53.766;9.626;2023-01-10T07:40:05;4.90;99.90
12872;DHT22;6504;53.766;9.626;2023-01-10T07:42:33;4.90;99.90
12872;DHT22;6504;53.766;9.626;2023-01-10T07:45:01;4.90;99.90
12872;DHT22;6504;53.766;9.626;2023-01-10T07:47:29;4.90;99.90
12872;DHT22;6504;53.766;9.626;2023-01-10T07:49:57;4.90;99.90
12872;DHT22;6504;53.766;9.626;2023-01-10T07:52:25;4.90;99.90
12872;DHT22;6504;53.766;9.626;2023-01-10T07:54:54;4.90;99.90
12872;DHT22;6504;53.766;9.626;2023-01-10T07:57:22;4.90;99.90
12872;DHT22;6504;53.766;9.626;2023-01-10T07:59:50;4.90;99.90
12872;DHT22;6504;53.766;9.626;2023-01-10T08:02:19;4.90;99.90
12872;DHT22;6504;53.766;9.626;2023-01-10T08:04:47;4.90;99.90
12872;DHT22;6504;53.766;9.626;2023-01-10T08:07:15;4.90;99.90
12872;DHT22;6504;53.766;9.626;2023-01-10T08:09:43;4.90;99.90
12872;DHT22;6504;53.766;9.626;2023-01-10T08:12:12;4.80;99.90
12872;DHT22;6504;53.766;9.626;2023-01-10T08:14:40;4.90;99.90
12872;DHT22;6504;53.766;9.626;2023-01-10T08:17:09;4.90;99.90
12872;DHT22;6504;53.766;9.626;2023-01-10T08:19:37;4.90;99.90
12872;DHT22;6504;53.766;9.626;2023-01-10T08:22:06;4.90;99.90
12872;DHT22;6504;53.766;9.626;2023-01-10T08:24:34;4.90;99.90
12872;DHT22;6504;53.766;9.626;2023-01-10T08:27:03;4.90;99.90
12872;DHT22;6504;53.766;9.626;2023-01-10T08:29:32;4.90;99.90
12872;DHT22;6504;53.766;9.626;2023-01-10T08:32:00;4.90;99.90
12872;DHT22;6504;53.766;9.626;2023-01-10T08:34:28;4.90;99.90
12872;DHT22;6504;53.766;9.626;2023-01-10T08:36:56;4.90;99.90
12872;DHT22;6504;53.766;9.626;2023-01-10T08:39:24;4.90;99.90
12872;DHT22;6504;53.766;9.626;2023-01-10T08:41:52;4.80;99.90
12872;DHT22;6504;53.766;9.626;2023-01-10T08:44:21;4.80;99.90
12872;DHT22;6504;53.766;9.626;2023-01-10T08:46:50;4.80;99.90
12872;DHT22;6504;53.766;9.626;2023-01-10T08:49:19;4.80;99.90
12872;DHT22;6504;53.766;9.626;2023-01-10T08:51:47;4.80;99.90
12872;DHT22;6504;53.766;9.626;2023-01-10T08:54:15;4.90;99.90
12872;DHT22;6504;53.766;9.626;2023-01-10T08:56:44;4.80;99.90
12872;DHT22;6504;53.766;9.626;2023-01-10T08:59:12;4.90;99.90
12872;DHT22;6504;53.766;9.626;2023-01-10T09:01:41;4.90;99.90
12872;DHT22;6504;53.766;9.626;2023-01-10T09:04:11;4.90;99.90
12872;DHT22;6504;53.766;9.626;2023-01-10T09:06:39;4.90;99.90
12872;DHT22;6504;53.766;9.626;2023-01-10T09:09:07;4.90;99.90
12872;DHT22;6504;53.766;9.626;2023-01-10T09:11:35;4.90;99.90
12872;DHT22;6504;53.766;9.626;2023-01-10T09:14:04;4.90;99.90
12872;DHT22;6504;53.766;9.626;2023-01-10T09:16:33;4.90;99.90
12872;DHT22;6504;53.766;9.626;2023-01-10T09:19:01;4.90;99.90
12872;DHT22;6504;53.766;9.626;2023-01-10T09:21:31;4.90;99.90
12872;DHT22;6504;53.766;9.626;2023-01-10T09:23:59;5.00;99.90
12872;DHT22;6504;53.766;9.626;2023-01-10T09:26:27;5.00;99.90
12872;DHT22;6504;53.766;9.626;2023-01-10T09:28:55;5.00;99.90
12872;DHT22;6504;53.766;9.626;2023-01-10T09:31:23;5.00;99.90
12872;DHT22;6504;53.766;9.626;2023-01-10T09:33:51;5.00;99.90
12872;DHT22;6504;53.766;9.626;2023-01-10T09:36:19;5.00;99.90
12872;DHT22;6504;53.766;9.626;2023-01-10T09:38:49;5.00;99.90
12872;DHT22;6504;53.766;9.626;2023-01-10T09:41:37;5.00;99.90
12872;DHT22;6504;53.766;9.626;2023-01-10T09:44:16;5.10;99.90
12872;DHT22;6504;53.766;9.626;2023-01-10T09:46:50;5.10;99.90
12872;DHT22;6504;53.766;9.626;2023-01-10T09:49:28;5.10;99.90
12872;DHT22;6504;53.766;9.626;2023-01-10T09:52:18;5.20;99.90
12872;DHT22;6504;53.766;9.626;2023-01-10T09:54:50;5.20;99.90
12872;DHT22;6504;53.766;9.626;2023-01-10T09:57:21;5.20;99.90
12872;DHT22;6504;53.766;9.626;2023-01-10T09:59:50;5.30;99.90
12872;DHT22;6504;53.766;9.626;2023-01-10T10:02:25;5.30;99.90
12872;DHT22;6504;53.766;9.626;2023-01-10T10:05:07;5.30;99.90
12872;DHT22;6504;53.766;9.626;2023-01-10T10:07:36;5.40;99.90
12872;DHT22;6504;53.766;9.626;2023-01-10T10:10:11;5.40;99.90
12872;DHT22;6504;53.766;9.626;2023-01-10T10:12:47;5.40;99.90
12872;DHT22;6504;53.766;9.626;2023-01-10T10:15:25;5.50;99.90
12872;DHT22;6504;53.766;9.626;2023-01-10T10:18:09;5.50;99.90
12872;DHT22;6504;53.766;9.626;2023-01-10T10:20:50;5.50;99.90
12872;DHT22;6504;53.766;9.626;2023-01-10T10:23:33;5.50;99.90
12872;DHT22;6504;53.766;9.626;2023-01-10T10:26:08;5.60;99.90
12872;DHT22;6504;53.766;9.626;2023-01-10T10:29:06;5.60;99.90
12872;DHT22;6504;53.766;9.626;2023-01-10T10:32:02;5.60;99.90
12872;DHT22;6504;53.766;9.626;2023-01-10T10:34:36;5.70;99.90
12872;DHT22;6504;53.766;9.626;2023-01-10T10:37:10;5.70;99.90
12872;DHT22;6504;53.766;9.626;2023-01-10T10:39:53;5.70;99.90
12872;DHT22;6504;53.766;9.626;2023-01-10T10:42:28;5.80;99.90
12872;DHT22;6504;53.766;9.626;2023-01-10T10:45:02;5.80;99.90
12872;DHT22;6504;53.766;9.626;2023-01-10T10:47:33;5.90;99.90
12872;DHT22;6504;53.766;9.626;2023-01-10T10:50:14;5.90;99.90
12872;DHT22;6504;53.766;9.626;2023-01-10T10:52:45;6.00;99.90
12872;DHT22;6504;53.766;9.626;2023-01-10T10:55:15;6.00;99.90
12872;DHT22;6504;53.766;9.626;2023-01-10T10:57:46;6.00;99.90
12872;DHT22;6504;53.766;9.626;2023-01-10T11:00:27;6.10;99.90
12872;DHT22;6504;53.766;9.626;2023-01-10T11:02:59;6.10;99.90
12872;DHT22;6504;53.766;9.626;2023-01-10T11:05:34;6.10;99.90
12872;DHT22;6504;53.766;9.626;2023-01-10T11:08:05;6.10;99.90
12872;DHT22;6504;53.766;9.626;2023-01-10T11:10:38;6.10;99.90
12872;DHT22;6504;53.766;9.626;2023-01-10T11:13:15;6.10;99.90
12872;DHT22;6504;53.766;9.626;2023-01-10T11:15:45;6.10;99.90
12872;DHT22;6504;53.766;9.626;2023-01-10T11:18:16;6.10;99.90
12872;DHT22;6504;53.766;9.626;2023-01-10T11:20:48;6.10;99.90
12872;DHT22;6504;53.766;9.626;2023-01-10T11:23:39;6.10;99.90
12872;DHT22;6504;53.766;9.626;2023-01-10T11:26:09;6.10;99.90
12872;DHT22;6504;53.766;9.626;2023-01-10T11:28:50;6.20;99.90
12872;DHT22;6504;53.766;9.626;2023-01-10T11:31:26;6.20;99.90
12872;DHT22;6504;53.766;9.626;2023-01-10T11:33:55;6.20;99.90
12872;DHT22;6504;53.766;9.626;2023-01-10T11:36:24;6.20;99.90
12872;DHT22;6504;53.766;9.626;2023-01-10T11:38:59;6.20;99.90
12872;DHT22;6504;53.766;9.626;2023-01-10T11:41:28;6.20;99.90
12872;DHT22;6504;53.766;9.626;2023-01-10T11:44:19;6.20;99.90
12872;DHT22;6504;53.766;9.626;2023-01-10T11:46:48;6.30;99.90
12872;DHT22;6504;53.766;9.626;2023-01-10T11:49:23;6.30;99.90
12872;DHT22;6504;53.766;9.626;2023-01-10T11:51:57;6.30;99.90
12872;DHT22;6504;53.766;9.626;2023-01-10T11:54:27;6.30;99.90
12872;DHT22;6504;53.766;9.626;2023-01-10T11:56:57;6.30;99.90
12872;DHT22;6504;53.766;9.626;2023-01-10T11:59:27;6.30;99.90
12872;DHT22;6504;53.766;9.626;2023-01-10T12:01:59;6.30;99.90
12872;DHT22;6504;53.766;9.626;2023-01-10T12:04:29;6.40;99.90
12872;DHT22;6504;53.766;9.626;2023-01-10T12:07:02;6.40;99.90
12872;DHT22;6504;53.766;9.626;2023-01-10T12:09:35;6.40;99.90
12872;DHT22;6504;53.766;9.626;2023-01-10T12:12:04;6.40;99.90
12872;DHT22;6504;53.766;9.626;2023-01-10T12:14:34;6.40;99.90
12872;DHT22;6504;53.766;9.626;2023-01-10T12:17:02;6.50;99.90
12872;DHT22;6504;53.766;9.626;2023-01-10T12:19:31;6.50;99.90
12872;DHT22;6504;53.766;9.626;2023-01-10T12:22:02;6.40;99.90
12872;DHT22;6504;53.766;9.626;2023-01-10T12:24:34;6.40;99.90
12872;DHT22;6504;53.766;9.626;2023-01-10T12:27:04;6.40;99.90
12872;DHT22;6504;53.766;9.626;2023-01-10T12:29:40;6.50;99.90
12872;DHT22;6504;53.766;9.626;2023-01-10T12:32:16;6.50;99.90
12872;DHT22;6504;53.766;9.626;2023-01-10T12:34:51;6.50;99.90
12872;DHT22;6504;53.766;9.626;2023-01-10T12:37:31;6.50;99.90
12872;DHT22;6504;53.766;9.626;2023-01-10T12:40:10;6.50;99.90
12872;DHT22;6504;53.766;9.626;2023-01-10T12:42:46;6.50;99.90
12872;DHT22;6504;53.766;9.626;2023-01-10T12:45:39;6.50;99.90
12872;DHT22;6504;53.766;9.626;2023-01-10T12:48:14;6.60;99.90
12872;DHT22;6504;53.766;9.626;2023-01-10T12:50:46;6.60;99.90
12872;DHT22;6504;53.766;9.626;2023-01-10T12:53:27;6.60;99.90
12872;DHT22;6504;53.766;9.626;2023-01-10T12:55:59;6.60;99.90
12872;DHT22;6504;53.766;9.626;2023-01-10T12:58:34;6.60;99.90
12872;DHT22;6504;53.766;9.626;2023-01-10T13:01:05;6.60;99.90
12872;DHT22;6504;53.766;9.626;2023-01-10T13:03:34;6.60;99.90
12872;DHT22;6504;53.766;9.626;2023-01-10T13:06:03;6.60;99.90
12872;DHT22;6504;53.766;9.626;2023-01-10T13:08:32;6.60;99.90
12872;DHT22;6504;53.766;9.626;2023-01-10T13:11:02;6.70;99.90
12872;DHT22;6504;53.766;9.626;2023-01-10T13:13:33;6.70;99.90
12872;DHT22;6504;53.766;9.626;2023-01-10T13:16:25;6.70;99.90
12872;DHT22;6504;53.766;9.626;2023-01-10T13:19:01;6.70;99.90
12872;DHT22;6504;53.766;9.626;2023-01-10T13:21:30;6.70;99.90
12872;DHT22;6504;53.766;9.626;2023-01-10T13:24:00;6.70;99.90
12872;DHT22;6504;53.766;9.626;2023-01-10T13:26:44;6.70;99.90
12872;DHT22;6504;53.766;9.626;2023-01-10T13:29:17;6.80;99.90
12872;DHT22;6504;53.766;9.626;2023-01-10T13:31:47;6.80;99.90
12872;DHT22;6504;53.766;9.626;2023-01-10T13:34:25;6.80;99.90
12872;DHT22;6504;53.766;9.626;2023-01-10T13:36:56;6.80;99.90
12872;DHT22;6504;53.766;9.626;2023-01-10T13:39:30;6.80;99.90
12872;DHT22;6504;53.766;9.626;2023-01-10T13:42:29;6.80;99.90
12872;DHT22;6504;53.766;9.626;2023-01-10T13:45:26;6.80;99.90
12872;DHT22;6504;53.766;9.626;2023-01-10T13:51:15;6.80;99.90
12872;DHT22;6504;53.766;9.626;2023-01-10T13:53:56;6.80;99.90
12872;DHT22;6504;53.766;9.626;2023-01-10T13:56:30;6.80;99.90
12872;DHT22;6504;53.766;9.626;2023-01-10T13:58:59;6.70;99.90
12872;DHT22;6504;53.766;9.626;2023-01-10T14:01:49;6.80;99.90
12872;DHT22;6504;53.766;9.626;2023-01-10T14:04:38;6.70;99.90
12872;DHT22;6504;53.766;9.626;2023-01-10T14:07:21;6.70;99.90
12872;DHT22;6504;53.766;9.626;2023-01-10T14:09:50;6.70;99.90
12872;DHT22;6504;53.766;9.626;2023-01-10T14:12:27;6.70;99.90
12872;DHT22;6504;53.766;9.626;2023-01-10T14:14:59;6.70;99.90
12872;DHT22;6504;53.766;9.626;2023-01-10T14:17:29;6.70;99.90
12872;DHT22;6504;53.766;9.626;2023-01-10T14:20:06;6.70;99.90
12872;DHT22;6504;53.766;9.626;2023-01-10T14:22:56;6.60;99.90
12872;DHT22;6504;53.766;9.626;2023-01-10T14:25:25;6.60;99.90
12872;DHT22;6504;53.766;9.626;2023-01-10T14:27:55;6.60;99.90
12872;DHT22;6504;53.766;9.626;2023-01-10T14:30:28;6.60;99.90
12872;DHT22;6504;53.766;9.626;2023-01-10T14:33:00;6.60;99.90
12872;DHT22;6504;53.766;9.626;2023-01-10T14:35:35;6.60;99.90
12872;DHT22;6504;53.766;9.626;2023-01-10T14:38:07;6.60;99.90
12872;DHT22;6504;53.766;9.626;2023-01-10T14:40:43;6.50;99.90
12872;DHT22;6504;53.766;9.626;2023-01-10T14:43:14;6.50;99.90
12872;DHT22;6504;53.766;9.626;2023-01-10T14:45:48;6.50;99.90
12872;DHT22;6504;53.766;9.626;2023-01-10T14:48:26;6.50;99.90
12872;DHT22;6504;53.766;9.626;2023-01-10T14:51:23;6.50;99.90
12872;DHT22;6504;53.766;9.626;2023-01-10T14:53:57;6.40;99.90
12872;DHT22;6504;53.766;9.626;2023-01-10T14:56:28;6.40;99.90
12872;DHT22;6504;53.766;9.626;2023-01-10T14:58:56;6.40;99.90
12872;DHT22;6504;53.766;9.626;2023-01-10T15:01:26;6.30;99.90
12872;DHT22;6504;53.766;9.626;2023-01-10T15:03:55;6.30;99.90
12872;DHT22;6504;53.766;9.626;2023-01-10T15:06:24;6.30;99.90
12872;DHT22;6504;53.766;9.626;2023-01-10T15:08:58;6.30;99.90
12872;DHT22;6504;53.766;9.626;2023-01-10T15:11:27;6.20;99.90
12872;DHT22;6504;53.766;9.626;2023-01-10T15:14:00;6.20;99.90
12872;DHT22;6504;53.766;9.626;2023-01-10T15:16:30;6.10;99.90
12872;DHT22;6504;53.766;9.626;2023-01-10T15:18:59;6.10;99.90
12872;DHT22;6504;53.766;9.626;2023-01-10T15:21:27;6.10;99.90
12872;DHT22;6504;53.766;9.626;2023-01-10T15:23:56;6.10;99.90
12872;DHT22;6504;53.766;9.626;2023-01-10T15:26:27;6.10;99.90
12872;DHT22;6504;53.766;9.626;2023-01-10T15:29:09;6.00;99.90
12872;DHT22;6504;53.766;9.626;2023-01-10T15:31:39;6.00;99.90
12872;DHT22;6504;53.766;9.626;2023-01-10T15:34:10;6.00;99.90
12872;DHT22;6504;53.766;9.626;2023-01-10T15:36:44;6.00;99.90
12872;DHT22;6504;53.766;9.626;2023-01-10T15:39:19;6.00;99.90
12872;DHT22;6504;53.766;9.626;2023-01-10T15:41:48;6.00;99.90
12872;DHT22;6504;53.766;9.626;2023-01-10T15:44:38;5.90;99.90
12872;DHT22;6504;53.766;9.626;2023-01-10T15:50:22;5.90;99.90
12872;DHT22;6504;53.766;9.626;2023-01-10T15:52:54;5.90;99.90
12872;DHT22;6504;53.766;9.626;2023-01-10T15:55:38;5.80;99.90
12872;DHT22;6504;53.766;9.626;2023-01-10T15:58:16;5.80;99.90
12872;DHT22;6504;53.766;9.626;2023-01-10T16:00:46;5.80;99.90
12872;DHT22;6504;53.766;9.626;2023-01-10T16:03:21;5.80;99.90
12872;DHT22;6504;53.766;9.626;2023-01-10T16:05:52;5.80;99.90
12872;DHT22;6504;53.766;9.626;2023-01-10T16:08:23;5.80;99.90
12872;DHT22;6504;53.766;9.626;2023-01-10T16:10:56;5.80;99.90
12872;DHT22;6504;53.766;9.626;2023-01-10T16:13:25;5.80;99.90
12872;DHT22;6504;53.766;9.626;2023-01-10T16:15:58;5.80;99.90
12872;DHT22;6504;53.766;9.626;2023-01-10T16:18:26;5.80;99.90
12872;DHT22;6504;53.766;9.626;2023-01-10T16:20:56;5.80;99.90
12872;DHT22;6504;53.766;9.626;2023-01-10T16:23:29;5.80;99.90
12872;DHT22;6504;53.766;9.626;2023-01-10T16:26:01;5.80;99.90
12872;DHT22;6504;53.766;9.626;2023-01-10T16:28:31;5.80;99.90
12872;DHT22;6504;53.766;9.626;2023-01-10T16:31:02;5.70;99.90
12872;DHT22;6504;53.766;9.626;2023-01-10T16:33:32;5.70;99.90
12872;DHT22;6504;53.766;9.626;2023-01-10T16:36:03;5.70;99.90
12872;DHT22;6504;53.766;9.626;2023-01-10T16:38:36;5.70;99.90
12872;DHT22;6504;53.766;9.626;2023-01-10T16:41:09;5.70;99.90
12872;DHT22;6504;53.766;9.626;2023-01-10T16:43:53;5.70;99.90
12872;DHT22;6504;53.766;9.626;2023-01-10T16:46:21;5.70;99.90